sensor_id;sensor_type;location;lat;lon;timestamp;pressure;altitude;pressure_sealevel;temperature;humidity
32109;BME280;18624;50.042;8.436;2022-09-09T00:01:37;99952.19;;;17.93;100.00
32109;BME280;18624;50.042;8.436;2022-09-09T00:04:28;99964.03;;;17.94;100.00
32109;BME280;18624;50.042;8.436;2022-09-09T00:06:57;99958.19;;;17.92;100.00
32109;BME280;18624;50.042;8.436;2022-09-09T00:09:28;99953.91;;;17.91;100.00
32109;BME280;18624;50.042;8.436;2022-09-09T00:12:02;99957.94;;;17.90;99.80
32109;BME280;18624;50.042;8.436;2022-09-09T00:14:42;99948.31;;;17.85;99.89
32109;BME280;18624;50.042;8.436;2022-09-09T00:17:46;99944.50;;;17.83;100.00
32109;BME280;18624;50.042;8.436;2022-09-09T00:20:24;99947.28;;;17.83;100.00
32109;BME280;18624;50.042;8.436;2022-09-09T00:23:10;99936.34;;;17.74;100.00
32109;BME280;18624;50.042;8.436;2022-09-09T00:28:28;99954.03;;;17.76;99.93
32109;BME280;18624;50.042;8.436;2022-09-09T00:31:12;99941.59;;;17.71;99.59
32109;BME280;18624;50.042;8.436;2022-09-09T00:33:39;99949.41;;;17.73;99.70
32109;BME280;18624;50.042;8.436;2022-09-09T00:36:13;99952.13;;;17.67;99.90
32109;BME280;18624;50.042;8.436;2022-09-09T00:38:45;99946.06;;;17.63;100.00
32109;BME280;18624;50.042;8.436;2022-09-09T00:41:35;99950.06;;;17.62;100.00
32109;BME280;18624;50.042;8.436;2022-09-09T00:44:33;99952.09;;;17.62;100.00
32109;BME280;18624;50.042;8.436;2022-09-09T00:47:12;99924.75;;;17.49;100.00
32109;BME280;18624;50.042;8.436;2022-09-09T00:50:00;99948.22;;;17.54;100.00
32109;BME280;18624;50.042;8.436;2022-09-09T00:55:16;99952.44;;;17.49;100.00
32109;BME280;18624;50.042;8.436;2022-09-09T00:57:46;99960.91;;;17.40;100.00
32109;BME280;18624;50.042;8.436;2022-09-09T01:00:25;99966.94;;;17.38;100.00
32109;BME280;18624;50.042;8.436;2022-09-09T01:03:10;99953.75;;;17.33;100.00
32109;BME280;18624;50.042;8.436;2022-09-09T01:05:45;99948.16;;;17.28;100.00
32109;BME280;18624;50.042;8.436;2022-09-09T01:11:20;99947.69;;;17.09;100.00
32109;BME280;18624;50.042;8.436;2022-09-09T01:13:53;99946.63;;;17.06;100.00
32109;BME280;18624;50.042;8.436;2022-09-09T01:16:27;99947.94;;;17.11;100.00
32109;BME280;18624;50.042;8.436;2022-09-09T01:18:56;99948.78;;;17.17;100.00
32109;BME280;18624;50.042;8.436;2022-09-09T01:26:44;99939.91;;;17.33;100.00
32109;BME280;18624;50.042;8.436;2022-09-09T01:29:21;99949.28;;;17.36;100.00
32109;BME280;18624;50.042;8.436;2022-09-09T01:31:56;99950.53;;;17.35;100.00
32109;BME280;18624;50.042;8.436;2022-09-09T01:34:27;99954.53;;;17.34;100.00
32109;BME280;18624;50.042;8.436;2022-09-09T01:37:02;99943.47;;;17.34;100.00
32109;BME280;18624;50.042;8.436;2022-09-09T01:39:33;99947.41;;;17.27;100.00
32109;BME280;18624;50.042;8.436;2022-09-09T01:42:06;99891.66;;;16.79;100.00
32109;BME280;18624;50.042;8.436;2022-09-09T01:44:34;99943.44;;;17.13;100.00
32109;BME280;18624;50.042;8.436;2022-09-09T01:47:03;99945.16;;;17.11;100.00
32109;BME280;18624;50.042;8.436;2022-09-09T01:49:30;99948.72;;;17.11;100.00
32109;BME280;18624;50.042;8.436;2022-09-09T01:52:04;99942.63;;;17.07;100.00
32109;BME280;18624;50.042;8.436;2022-09-09T01:54:34;99910.84;;;16.82;100.00
32109;BME280;18624;50.042;8.436;2022-09-09T01:57:15;99949.69;;;17.08;100.00
32109;BME280;18624;50.042;8.436;2022-09-09T02:02:32;99942.97;;;17.15;100.00
32109;BME280;18624;50.042;8.436;2022-09-09T02:05:36;99937.91;;;17.13;100.00
32109;BME280;18624;50.042;8.436;2022-09-09T02:08:18;99939.44;;;17.14;100.00
32109;BME280;18624;50.042;8.436;2022-09-09T02:11:13;99958.81;;;17.14;100.00
32109;BME280;18624;50.042;8.436;2022-09-09T02:13:46;99950.94;;;17.07;100.00
32109;BME280;18624;50.042;8.436;2022-09-09T02:16:35;99956.81;;;17.15;100.00
32109;BME280;18624;50.042;8.436;2022-09-09T02:19:08;99955.97;;;17.09;100.00
32109;BME280;18624;50.042;8.436;2022-09-09T02:21:53;99953.72;;;17.07;100.00
32109;BME280;18624;50.042;8.436;2022-09-09T02:24:22;99950.72;;;17.11;100.00
32109;BME280;18624;50.042;8.436;2022-09-09T02:27:00;99954.72;;;17.10;100.00
32109;BME280;18624;50.042;8.436;2022-09-09T02:29:33;99957.03;;;17.11;100.00
32109;BME280;18624;50.042;8.436;2022-09-09T02:32:02;99954.53;;;17.13;100.00
32109;BME280;18624;50.042;8.436;2022-09-09T02:34:39;99858.81;;;16.51;100.00
32109;BME280;18624;50.042;8.436;2022-09-09T02:37:09;99961.44;;;17.24;100.00
32109;BME280;18624;50.042;8.436;2022-09-09T02:39:38;99964.78;;;17.28;100.00
32109;BME280;18624;50.042;8.436;2022-09-09T02:42:08;99959.53;;;17.30;100.00
32109;BME280;18624;50.042;8.436;2022-09-09T02:44:36;99953.13;;;17.24;100.00
32109;BME280;18624;50.042;8.436;2022-09-09T02:50:12;99961.66;;;17.20;100.00
32109;BME280;18624;50.042;8.436;2022-09-09T02:53:14;99954.03;;;17.15;100.00
32109;BME280;18624;50.042;8.436;2022-09-09T02:55:48;99953.84;;;17.18;100.00
32109;BME280;18624;50.042;8.436;2022-09-09T02:58:19;99897.00;;;16.82;100.00
32109;BME280;18624;50.042;8.436;2022-09-09T03:01:00;99915.47;;;16.91;100.00
32109;BME280;18624;50.042;8.436;2022-09-09T03:03:30;99933.69;;;16.98;100.00
32109;BME280;18624;50.042;8.436;2022-09-09T03:05:59;99961.59;;;17.14;100.00
32109;BME280;18624;50.042;8.436;2022-09-09T03:08:26;99957.56;;;17.15;100.00
32109;BME280;18624;50.042;8.436;2022-09-09T03:10:58;99942.41;;;17.11;100.00
32109;BME280;18624;50.042;8.436;2022-09-09T03:13:27;99941.88;;;17.07;100.00
32109;BME280;18624;50.042;8.436;2022-09-09T03:15:53;99950.19;;;17.07;100.00
32109;BME280;18624;50.042;8.436;2022-09-09T03:18:20;99948.84;;;17.02;100.00
32109;BME280;18624;50.042;8.436;2022-09-09T03:20:50;99954.59;;;16.99;100.00
32109;BME280;18624;50.042;8.436;2022-09-09T03:23:18;99946.75;;;16.97;100.00
32109;BME280;18624;50.042;8.436;2022-09-09T03:25:49;99960.31;;;16.95;100.00
32109;BME280;18624;50.042;8.436;2022-09-09T03:28:19;99956.81;;;16.94;100.00
32109;BME280;18624;50.042;8.436;2022-09-09T03:30:47;99946.19;;;16.93;100.00
32109;BME280;18624;50.042;8.436;2022-09-09T03:33:14;99959.78;;;16.91;100.00
32109;BME280;18624;50.042;8.436;2022-09-09T03:35:45;99966.06;;;16.91;100.00
32109;BME280;18624;50.042;8.436;2022-09-09T03:38:14;99964.75;;;16.87;100.00
32109;BME280;18624;50.042;8.436;2022-09-09T03:40:51;99965.44;;;16.82;100.00
32109;BME280;18624;50.042;8.436;2022-09-09T03:43:22;99957.38;;;16.84;100.00
32109;BME280;18624;50.042;8.436;2022-09-09T03:45:51;99968.75;;;16.86;100.00
32109;BME280;18624;50.042;8.436;2022-09-09T03:48:18;99959.50;;;16.89;100.00
32109;BME280;18624;50.042;8.436;2022-09-09T03:50:46;99963.59;;;16.93;100.00
32109;BME280;18624;50.042;8.436;2022-09-09T03:53:14;99961.84;;;16.96;100.00
32109;BME280;18624;50.042;8.436;2022-09-09T03:55:52;99961.66;;;17.00;100.00
32109;BME280;18624;50.042;8.436;2022-09-09T03:58:22;99943.66;;;16.89;100.00
32109;BME280;18624;50.042;8.436;2022-09-09T04:00:58;99957.94;;;17.03;100.00
32109;BME280;18624;50.042;8.436;2022-09-09T04:03:26;99883.50;;;16.55;100.00
32109;BME280;18624;50.042;8.436;2022-09-09T04:05:55;99950.38;;;17.03;100.00
32109;BME280;18624;50.042;8.436;2022-09-09T04:08:25;99949.13;;;17.04;100.00
32109;BME280;18624;50.042;8.436;2022-09-09T04:10:53;99941.78;;;17.01;100.00
32109;BME280;18624;50.042;8.436;2022-09-09T04:13:23;99940.47;;;16.96;100.00
32109;BME280;18624;50.042;8.436;2022-09-09T04:16:10;99929.31;;;16.91;100.00
32109;BME280;18624;50.042;8.436;2022-09-09T04:18:37;99875.81;;;16.44;100.00
32109;BME280;18624;50.042;8.436;2022-09-09T04:21:04;99906.69;;;16.57;100.00
32109;BME280;18624;50.042;8.436;2022-09-09T04:23:33;99929.38;;;16.76;100.00
32109;BME280;18624;50.042;8.436;2022-09-09T04:26:02;99938.44;;;16.77;100.00
32109;BME280;18624;50.042;8.436;2022-09-09T04:28:33;99935.88;;;16.73;100.00
32109;BME280;18624;50.042;8.436;2022-09-09T04:31:05;99920.78;;;16.74;100.00
32109;BME280;18624;50.042;8.436;2022-09-09T04:33:32;99915.53;;;16.76;100.00
32109;BME280;18624;50.042;8.436;2022-09-09T04:36:05;99917.31;;;16.79;100.00
32109;BME280;18624;50.042;8.436;2022-09-09T04:38:31;99821.25;;;16.09;100.00
32109;BME280;18624;50.042;8.436;2022-09-09T04:40:58;99929.72;;;16.84;100.00
32109;BME280;18624;50.042;8.436;2022-09-09T04:43:25;99930.97;;;16.83;100.00
32109;BME280;18624;50.042;8.436;2022-09-09T04:45:53;99935.53;;;16.86;100.00
32109;BME280;18624;50.042;8.436;2022-09-09T04:48:23;99934.97;;;16.82;100.00
32109;BME280;18624;50.042;8.436;2022-09-09T04:50:55;99941.00;;;16.80;100.00
32109;BME280;18624;50.042;8.436;2022-09-09T04:53:23;99938.50;;;16.82;100.00
32109;BME280;18624;50.042;8.436;2022-09-09T04:55:49;99945.78;;;16.80;100.00
32109;BME280;18624;50.042;8.436;2022-09-09T04:58:16;99954.38;;;16.67;100.00
32109;BME280;18624;50.042;8.436;2022-09-09T05:00:42;99950.53;;;16.64;100.00
32109;BME280;18624;50.042;8.436;2022-09-09T05:03:09;99954.00;;;16.59;100.00
32109;BME280;18624;50.042;8.436;2022-09-09T05:05:36;99956.19;;;16.55;100.00
32109;BME280;18624;50.042;8.436;2022-09-09T05:08:04;99956.50;;;16.57;100.00
32109;BME280;18624;50.042;8.436;2022-09-09T05:10:31;99961.34;;;16.62;100.00
32109;BME280;18624;50.042;8.436;2022-09-09T05:12:59;99965.16;;;16.65;100.00
32109;BME280;18624;50.042;8.436;2022-09-09T05:15:28;99968.09;;;16.61;100.00
32109;BME280;18624;50.042;8.436;2022-09-09T05:17:59;99980.91;;;16.59;100.00
32109;BME280;18624;50.042;8.436;2022-09-09T05:20:29;99916.66;;;16.19;100.00
32109;BME280;18624;50.042;8.436;2022-09-09T05:22:56;99984.91;;;16.58;100.00
32109;BME280;18624;50.042;8.436;2022-09-09T05:25:26;99979.09;;;16.56;100.00
32109;BME280;18624;50.042;8.436;2022-09-09T05:27:54;99969.75;;;16.53;100.00
32109;BME280;18624;50.042;8.436;2022-09-09T05:30:21;99980.06;;;16.53;100.00
32109;BME280;18624;50.042;8.436;2022-09-09T05:32:50;99989.59;;;16.52;100.00
32109;BME280;18624;50.042;8.436;2022-09-09T05:35:17;99987.38;;;16.56;100.00
32109;BME280;18624;50.042;8.436;2022-09-09T05:37:45;99993.97;;;16.58;100.00
32109;BME280;18624;50.042;8.436;2022-09-09T05:40:12;99967.94;;;16.50;100.00
32109;BME280;18624;50.042;8.436;2022-09-09T05:42:39;99987.78;;;16.63;100.00
32109;BME280;18624;50.042;8.436;2022-09-09T05:45:07;99997.88;;;16.66;100.00
32109;BME280;18624;50.042;8.436;2022-09-09T05:47:35;99997.41;;;16.68;100.00
32109;BME280;18624;50.042;8.436;2022-09-09T05:50:05;99994.13;;;16.69;100.00
32109;BME280;18624;50.042;8.436;2022-09-09T05:52:31;99996.75;;;16.73;100.00
32109;BME280;18624;50.042;8.436;2022-09-09T05:54:58;100004.28;;;16.73;100.00
32109;BME280;18624;50.042;8.436;2022-09-09T05:57:25;100003.69;;;16.68;100.00
32109;BME280;18624;50.042;8.436;2022-09-09T05:59:52;100008.47;;;16.68;100.00
32109;BME280;18624;50.042;8.436;2022-09-09T06:02:19;100004.44;;;16.69;100.00
32109;BME280;18624;50.042;8.436;2022-09-09T06:04:46;100015.03;;;16.70;100.00
32109;BME280;18624;50.042;8.436;2022-09-09T06:07:13;100004.84;;;16.62;100.00
32109;BME280;18624;50.042;8.436;2022-09-09T06:09:40;100015.06;;;16.56;100.00
32109;BME280;18624;50.042;8.436;2022-09-09T06:12:08;100009.25;;;16.54;100.00
32109;BME280;18624;50.042;8.436;2022-09-09T06:14:35;100005.50;;;16.57;100.00
32109;BME280;18624;50.042;8.436;2022-09-09T06:17:03;100015.94;;;16.62;100.00
32109;BME280;18624;50.042;8.436;2022-09-09T06:19:29;100018.88;;;16.58;100.00
32109;BME280;18624;50.042;8.436;2022-09-09T06:21:58;99959.66;;;16.20;100.00
32109;BME280;18624;50.042;8.436;2022-09-09T06:24:26;100005.81;;;16.59;100.00
32109;BME280;18624;50.042;8.436;2022-09-09T06:26:53;100012.84;;;16.60;100.00
32109;BME280;18624;50.042;8.436;2022-09-09T06:29:25;100011.53;;;16.55;100.00
32109;BME280;18624;50.042;8.436;2022-09-09T06:31:52;100019.34;;;16.57;100.00
32109;BME280;18624;50.042;8.436;2022-09-09T06:34:21;100014.19;;;16.64;100.00
32109;BME280;18624;50.042;8.436;2022-09-09T06:36:51;100021.06;;;16.69;100.00
32109;BME280;18624;50.042;8.436;2022-09-09T06:39:18;100028.25;;;16.76;100.00
32109;BME280;18624;50.042;8.436;2022-09-09T06:41:45;100027.19;;;16.73;100.00
32109;BME280;18624;50.042;8.436;2022-09-09T06:44:30;100016.88;;;16.74;100.00
32109;BME280;18624;50.042;8.436;2022-09-09T06:47:01;100015.16;;;16.76;100.00
32109;BME280;18624;50.042;8.436;2022-09-09T06:49:28;100015.25;;;16.82;100.00
32109;BME280;18624;50.042;8.436;2022-09-09T06:51:55;100017.34;;;16.87;100.00
32109;BME280;18624;50.042;8.436;2022-09-09T06:54:21;100003.97;;;16.85;100.00
32109;BME280;18624;50.042;8.436;2022-09-09T06:56:50;100013.53;;;16.84;100.00
32109;BME280;18624;50.042;8.436;2022-09-09T06:59:22;100015.50;;;16.84;100.00
32109;BME280;18624;50.042;8.436;2022-09-09T07:01:50;100010.53;;;16.88;100.00
32109;BME280;18624;50.042;8.436;2022-09-09T07:04:21;100008.34;;;16.92;100.00
32109;BME280;18624;50.042;8.436;2022-09-09T07:06:48;100006.06;;;16.90;100.00
32109;BME280;18624;50.042;8.436;2022-09-09T07:09:21;99950.50;;;16.44;100.00
32109;BME280;18624;50.042;8.436;2022-09-09T07:11:51;100014.84;;;16.89;100.00
32109;BME280;18624;50.042;8.436;2022-09-09T07:14:20;99941.63;;;16.40;100.00
32109;BME280;18624;50.042;8.436;2022-09-09T07:16:54;100014.94;;;16.94;100.00
32109;BME280;18624;50.042;8.436;2022-09-09T07:19:26;100019.41;;;16.92;100.00
32109;BME280;18624;50.042;8.436;2022-09-09T07:21:53;100022.06;;;17.01;100.00
32109;BME280;18624;50.042;8.436;2022-09-09T07:24:22;100016.25;;;16.99;100.00
32109;BME280;18624;50.042;8.436;2022-09-09T07:26:48;100018.84;;;17.03;100.00
32109;BME280;18624;50.042;8.436;2022-09-09T07:29:15;100014.81;;;17.04;100.00
32109;BME280;18624;50.042;8.436;2022-09-09T07:31:46;100016.91;;;17.09;100.00
32109;BME280;18624;50.042;8.436;2022-09-09T07:34:18;100002.50;;;17.05;100.00
32109;BME280;18624;50.042;8.436;2022-09-09T07:36:45;100021.06;;;17.19;100.00
32109;BME280;18624;50.042;8.436;2022-09-09T07:39:13;100020.03;;;17.16;100.00
32109;BME280;18624;50.042;8.436;2022-09-09T07:41:46;100026.25;;;17.11;100.00
32109;BME280;18624;50.042;8.436;2022-09-09T07:44:18;100015.56;;;17.04;100.00
32109;BME280;18624;50.042;8.436;2022-09-09T07:46:48;100035.66;;;17.19;100.00
32109;BME280;18624;50.042;8.436;2022-09-09T07:49:19;100033.19;;;17.21;100.00
32109;BME280;18624;50.042;8.436;2022-09-09T07:51:55;100028.03;;;17.14;100.00
32109;BME280;18624;50.042;8.436;2022-09-09T07:54:21;100036.53;;;17.26;100.00
32109;BME280;18624;50.042;8.436;2022-09-09T07:56:52;100039.28;;;17.26;100.00
32109;BME280;18624;50.042;8.436;2022-09-09T07:59:21;100042.06;;;17.26;100.00
32109;BME280;18624;50.042;8.436;2022-09-09T08:01:51;100046.22;;;17.36;100.00
32109;BME280;18624;50.042;8.436;2022-09-09T08:04:25;100028.09;;;17.35;100.00
32109;BME280;18624;50.042;8.436;2022-09-09T08:06:56;100045.88;;;17.49;100.00
32109;BME280;18624;50.042;8.436;2022-09-09T08:09:25;100050.25;;;17.55;100.00
32109;BME280;18624;50.042;8.436;2022-09-09T08:12:09;100005.22;;;17.40;100.00
32109;BME280;18624;50.042;8.436;2022-09-09T08:14:37;100047.69;;;17.72;100.00
32109;BME280;18624;50.042;8.436;2022-09-09T08:17:04;100041.81;;;17.85;100.00
32109;BME280;18624;50.042;8.436;2022-09-09T08:19:32;99991.00;;;17.73;100.00
32109;BME280;18624;50.042;8.436;2022-09-09T08:22:05;100040.97;;;18.25;100.00
32109;BME280;18624;50.042;8.436;2022-09-09T08:24:34;100042.72;;;18.22;98.73
32109;BME280;18624;50.042;8.436;2022-09-09T08:27:00;100048.47;;;18.19;99.18
32109;BME280;18624;50.042;8.436;2022-09-09T08:29:27;100052.09;;;18.05;98.63
32109;BME280;18624;50.042;8.436;2022-09-09T08:31:56;100058.41;;;18.05;98.23
32109;BME280;18624;50.042;8.436;2022-09-09T08:34:25;100054.63;;;18.03;99.03
32109;BME280;18624;50.042;8.436;2022-09-09T08:36:54;100054.81;;;17.99;97.71
32109;BME280;18624;50.042;8.436;2022-09-09T08:39:27;100052.31;;;18.01;98.90
32109;BME280;18624;50.042;8.436;2022-09-09T08:44:56;100049.34;;;18.05;97.53
32109;BME280;18624;50.042;8.436;2022-09-09T08:47:53;100046.38;;;18.34;97.47
32109;BME280;18624;50.042;8.436;2022-09-09T08:50:26;100048.47;;;18.45;94.30
32109;BME280;18624;50.042;8.436;2022-09-09T08:53:11;100045.22;;;18.46;93.19
32109;BME280;18624;50.042;8.436;2022-09-09T08:55:50;100047.47;;;18.42;93.83
32109;BME280;18624;50.042;8.436;2022-09-09T08:58:29;100045.09;;;18.35;93.94
32109;BME280;18624;50.042;8.436;2022-09-09T09:11:48;100043.25;;;18.27;94.40
32109;BME280;18624;50.042;8.436;2022-09-09T09:14:24;100038.00;;;18.29;93.52
32109;BME280;18624;50.042;8.436;2022-09-09T09:17:00;100042.44;;;18.46;95.01
32109;BME280;18624;50.042;8.436;2022-09-09T09:19:28;100039.81;;;18.63;95.24
32109;BME280;18624;50.042;8.436;2022-09-09T09:27:39;100028.78;;;18.69;91.38
32109;BME280;18624;50.042;8.436;2022-09-09T09:30:15;100026.09;;;18.54;92.83
32109;BME280;18624;50.042;8.436;2022-09-09T09:35:43;100048.38;;;18.60;95.01
32109;BME280;18624;50.042;8.436;2022-09-09T09:38:25;100041.53;;;18.87;93.49
32109;BME280;18624;50.042;8.436;2022-09-09T09:41:13;100034.16;;;19.21;93.11
32109;BME280;18624;50.042;8.436;2022-09-09T09:43:41;100025.97;;;19.49;92.81
32109;BME280;18624;50.042;8.436;2022-09-09T09:46:23;100027.88;;;19.75;91.85
32109;BME280;18624;50.042;8.436;2022-09-09T09:49:00;100012.25;;;19.94;87.93
32109;BME280;18624;50.042;8.436;2022-09-09T09:51:30;100011.25;;;20.08;85.27
32109;BME280;18624;50.042;8.436;2022-09-09T09:56:45;100018.34;;;19.98;79.82
32109;BME280;18624;50.042;8.436;2022-09-09T09:59:22;100017.03;;;19.82;79.22
32109;BME280;18624;50.042;8.436;2022-09-09T10:02:20;100019.78;;;19.77;77.21
32109;BME280;18624;50.042;8.436;2022-09-09T10:05:21;100020.00;;;19.67;77.54
32109;BME280;18624;50.042;8.436;2022-09-09T10:08:10;100010.38;;;19.63;79.80
32109;BME280;18624;50.042;8.436;2022-09-09T10:10:49;99996.94;;;19.50;79.38
32109;BME280;18624;50.042;8.436;2022-09-09T10:13:29;100013.22;;;19.68;75.07
32109;BME280;18624;50.042;8.436;2022-09-09T10:16:14;100004.38;;;19.81;72.35
32109;BME280;18624;50.042;8.436;2022-09-09T10:18:59;100012.25;;;19.94;70.11
32109;BME280;18624;50.042;8.436;2022-09-09T10:33:58;100012.19;;;19.66;70.68
32109;BME280;18624;50.042;8.436;2022-09-09T10:36:24;100005.81;;;19.60;70.80
32109;BME280;18624;50.042;8.436;2022-09-09T10:39:05;100020.00;;;19.67;70.64
32109;BME280;18624;50.042;8.436;2022-09-09T10:41:45;100010.66;;;19.65;69.37
32109;BME280;18624;50.042;8.436;2022-09-09T10:44:21;100017.28;;;19.79;67.57
32109;BME280;18624;50.042;8.436;2022-09-09T10:47:10;99992.00;;;19.88;66.23
32109;BME280;18624;50.042;8.436;2022-09-09T10:49:56;100004.47;;;20.09;66.87
32109;BME280;18624;50.042;8.436;2022-09-09T10:52:36;100012.28;;;20.16;65.31
32109;BME280;18624;50.042;8.436;2022-09-09T10:55:16;100012.56;;;20.13;66.45
32109;BME280;18624;50.042;8.436;2022-09-09T10:57:51;100007.47;;;20.06;66.96
32109;BME280;18624;50.042;8.436;2022-09-09T11:03:03;100002.66;;;19.95;65.32
32109;BME280;18624;50.042;8.436;2022-09-09T11:05:42;100009.97;;;19.98;66.07
32109;BME280;18624;50.042;8.436;2022-09-09T11:08:19;100003.41;;;19.95;66.49
32109;BME280;18624;50.042;8.436;2022-09-09T11:16:04;99997.59;;;19.99;65.24
32109;BME280;18624;50.042;8.436;2022-09-09T11:18:36;99998.34;;;19.94;65.54
32109;BME280;18624;50.042;8.436;2022-09-09T11:21:17;99997.06;;;19.89;66.90
32109;BME280;18624;50.042;8.436;2022-09-09T11:23:54;99990.22;;;19.85;66.27
32109;BME280;18624;50.042;8.436;2022-09-09T11:26:30;99991.03;;;19.91;66.93
32109;BME280;18624;50.042;8.436;2022-09-09T11:35:00;99988.28;;;20.13;67.31
32109;BME280;18624;50.042;8.436;2022-09-09T11:37:58;99999.13;;;20.11;67.00
32109;BME280;18624;50.042;8.436;2022-09-09T11:40:28;99990.53;;;20.09;65.00
32109;BME280;18624;50.042;8.436;2022-09-09T11:43:05;99986.50;;;20.10;64.21
32109;BME280;18624;50.042;8.436;2022-09-09T11:45:35;99961.19;;;19.97;65.37
32109;BME280;18624;50.042;8.436;2022-09-09T11:48:03;99974.59;;;20.21;66.88
32109;BME280;18624;50.042;8.436;2022-09-09T11:50:36;99947.53;;;20.16;65.83
32109;BME280;18624;50.042;8.436;2022-09-09T11:55:40;99994.13;;;20.60;63.87
32109;BME280;18624;50.042;8.436;2022-09-09T12:03:04;99970.59;;;20.44;64.23
32109;BME280;18624;50.042;8.436;2022-09-09T12:05:42;99994.13;;;20.55;63.22
32109;BME280;18624;50.042;8.436;2022-09-09T12:08:15;99994.88;;;20.55;64.76
32109;BME280;18624;50.042;8.436;2022-09-09T12:10:53;99966.50;;;20.34;64.44
32109;BME280;18624;50.042;8.436;2022-09-09T12:13:23;99990.56;;;20.48;64.61
32109;BME280;18624;50.042;8.436;2022-09-09T12:15:58;99992.06;;;20.44;65.33
32109;BME280;18624;50.042;8.436;2022-09-09T12:18:32;99997.91;;;20.40;65.68
32109;BME280;18624;50.042;8.436;2022-09-09T12:23:53;100015.34;;;20.30;71.84
32109;BME280;18624;50.042;8.436;2022-09-09T12:26:33;100035.81;;;20.10;86.25
32109;BME280;18624;50.042;8.436;2022-09-09T12:29:25;100037.25;;;19.83;95.96
32109;BME280;18624;50.042;8.436;2022-09-09T12:32:01;99974.34;;;19.26;97.20
32109;BME280;18624;50.042;8.436;2022-09-09T12:34:48;100007.38;;;19.18;100.00
32109;BME280;18624;50.042;8.436;2022-09-09T12:37:27;100011.84;;;19.04;100.00
32109;BME280;18624;50.042;8.436;2022-09-09T12:39:59;99996.09;;;18.90;100.00
32109;BME280;18624;50.042;8.436;2022-09-09T12:42:26;99995.28;;;18.78;100.00
32109;BME280;18624;50.042;8.436;2022-09-09T12:44:58;99995.91;;;18.67;100.00
32109;BME280;18624;50.042;8.436;2022-09-09T12:49:56;100007.72;;;18.57;100.00
32109;BME280;18624;50.042;8.436;2022-09-09T12:52:33;100009.72;;;18.56;100.00
32109;BME280;18624;50.042;8.436;2022-09-09T12:55:03;100002.59;;;18.50;100.00
32109;BME280;18624;50.042;8.436;2022-09-09T12:57:35;100010.88;;;18.44;100.00
32109;BME280;18624;50.042;8.436;2022-09-09T13:00:12;100016.44;;;18.44;100.00
32109;BME280;18624;50.042;8.436;2022-09-09T13:02:52;100004.53;;;18.38;100.00
32109;BME280;18624;50.042;8.436;2022-09-09T13:05:34;100008.28;;;18.35;100.00
32109;BME280;18624;50.042;8.436;2022-09-09T13:08:02;100007.25;;;18.32;100.00
32109;BME280;18624;50.042;8.436;2022-09-09T13:10:32;100011.78;;;18.30;100.00
32109;BME280;18624;50.042;8.436;2022-09-09T13:13:17;100008.16;;;18.23;100.00
32109;BME280;18624;50.042;8.436;2022-09-09T13:16:06;100009.63;;;18.19;100.00
32109;BME280;18624;50.042;8.436;2022-09-09T13:18:36;100012.19;;;18.22;100.00
32109;BME280;18624;50.042;8.436;2022-09-09T13:21:05;100013.72;;;18.23;100.00
32109;BME280;18624;50.042;8.436;2022-09-09T13:23:34;99995.28;;;18.20;100.00
32109;BME280;18624;50.042;8.436;2022-09-09T13:26:06;99993.06;;;18.25;100.00
32109;BME280;18624;50.042;8.436;2022-09-09T13:28:47;99989.59;;;18.30;100.00
32109;BME280;18624;50.042;8.436;2022-09-09T13:31:28;99983.81;;;18.33;100.00
32109;BME280;18624;50.042;8.436;2022-09-09T13:33:55;99988.91;;;18.40;100.00
32109;BME280;18624;50.042;8.436;2022-09-09T13:36:30;99990.47;;;18.47;100.00
32109;BME280;18624;50.042;8.436;2022-09-09T13:38:59;99956.53;;;18.32;100.00
32109;BME280;18624;50.042;8.436;2022-09-09T13:41:44;99977.38;;;18.47;100.00
32109;BME280;18624;50.042;8.436;2022-09-09T13:44:24;99980.19;;;18.53;100.00
32109;BME280;18624;50.042;8.436;2022-09-09T13:47:06;99985.22;;;18.55;97.01
32109;BME280;18624;50.042;8.436;2022-09-09T13:49:43;99989.59;;;18.61;93.63
32109;BME280;18624;50.042;8.436;2022-09-09T13:52:11;99988.09;;;18.66;95.02
32109;BME280;18624;50.042;8.436;2022-09-09T13:54:40;99991.88;;;18.68;96.81
32109;BME280;18624;50.042;8.436;2022-09-09T13:57:16;100001.44;;;18.62;95.55
32109;BME280;18624;50.042;8.436;2022-09-09T13:59:47;99991.81;;;18.57;94.95
32109;BME280;18624;50.042;8.436;2022-09-09T14:02:30;99992.53;;;18.52;93.66
32109;BME280;18624;50.042;8.436;2022-09-09T14:04:57;99999.34;;;18.51;92.54
32109;BME280;18624;50.042;8.436;2022-09-09T14:07:23;100000.38;;;18.54;92.43
32109;BME280;18624;50.042;8.436;2022-09-09T14:09:51;100006.97;;;18.56;94.96
32109;BME280;18624;50.042;8.436;2022-09-09T14:12:18;100009.97;;;18.58;95.71
32109;BME280;18624;50.042;8.436;2022-09-09T14:14:45;100006.75;;;18.60;98.19
32109;BME280;18624;50.042;8.436;2022-09-09T14:17:11;100008.50;;;18.63;97.96
32109;BME280;18624;50.042;8.436;2022-09-09T14:19:38;100016.63;;;18.66;95.51
32109;BME280;18624;50.042;8.436;2022-09-09T14:22:04;100019.66;;;18.68;96.16
32109;BME280;18624;50.042;8.436;2022-09-09T14:24:31;100017.69;;;18.69;96.46
32109;BME280;18624;50.042;8.436;2022-09-09T14:26:57;100029.03;;;18.71;96.94
32109;BME280;18624;50.042;8.436;2022-09-09T14:29:23;100020.97;;;18.73;97.16
32109;BME280;18624;50.042;8.436;2022-09-09T14:31:51;100006.28;;;18.67;98.20
32109;BME280;18624;50.042;8.436;2022-09-09T14:34:18;100016.47;;;18.76;99.14
32109;BME280;18624;50.042;8.436;2022-09-09T14:36:44;100009.41;;;18.75;100.00
32109;BME280;18624;50.042;8.436;2022-09-09T14:39:12;100004.59;;;18.75;100.00
32109;BME280;18624;50.042;8.436;2022-09-09T14:41:38;100001.59;;;18.79;100.00